createdAt,value
2022-10-28T00:00:30.544Z,99.9
2022-10-28T00:02:28.192Z,99.9
2022-10-28T00:04:25.850Z,99.9
2022-10-28T00:06:23.395Z,99.9
2022-10-28T00:08:20.990Z,99.9
2022-10-28T00:10:18.625Z,99.9
2022-10-28T00:12:24.072Z,99.9
2022-10-28T00:14:21.696Z,99.9
2022-10-28T00:16:19.302Z,99.9
2022-10-28T00:18:16.931Z,99.9
2022-10-28T00:20:14.588Z,99.9
2022-10-28T00:22:12.213Z,99.9
2022-10-28T00:24:09.852Z,99.9
2022-10-28T00:26:15.432Z,99.9
2022-10-28T00:28:13.014Z,99.9
2022-10-28T00:30:10.610Z,99.9
2022-10-28T00:33:11.039Z,99.9
2022-10-28T00:35:08.649Z,99.9
2022-10-28T00:37:06.275Z,99.9
2022-10-28T00:39:11.812Z,99.9
2022-10-28T00:41:09.418Z,99.9
2022-10-28T00:43:07.013Z,99.9
2022-10-28T00:45:04.706Z,99.9
2022-10-28T00:47:02.302Z,99.9
2022-10-28T00:48:59.923Z,99.9
2022-10-28T00:50:57.536Z,99.9
2022-10-28T00:53:03.090Z,99.9
2022-10-28T00:55:00.712Z,99.9
2022-10-28T00:56:58.317Z,99.9
2022-10-28T00:58:55.929Z,99.9
2022-10-28T01:00:53.557Z,99.9
2022-10-28T01:02:51.152Z,99.9
2022-10-28T01:04:48.768Z,99.9
2022-10-28T01:06:54.314Z,99.9
2022-10-28T01:08:54.864Z,99.9
2022-10-28T01:12:47.151Z,99.9
2022-10-28T01:14:44.766Z,99.9
2022-10-28T01:18:39.986Z,99.9
2022-10-28T01:20:48.303Z,99.9
2022-10-28T01:22:43.161Z,99.9
2022-10-28T01:24:40.786Z,99.9
2022-10-28T01:27:07.769Z,99.9
2022-10-28T01:29:05.326Z,99.9
2022-10-28T01:37:03.763Z,99.9
2022-10-28T01:39:01.324Z,99.9
2022-10-28T01:40:58.974Z,99.9
2022-10-28T01:42:56.580Z,99.9
2022-10-28T01:44:54.284Z,99.9
2022-10-28T01:46:59.836Z,99.9
2022-10-28T01:48:57.441Z,99.9
2022-10-28T01:50:55.067Z,99.9
2022-10-28T01:52:52.911Z,99.9
2022-10-28T01:54:50.319Z,99.9
2022-10-28T01:56:47.935Z,99.9
2022-10-28T01:58:45.548Z,99.9
2022-10-28T02:00:51.222Z,99.9
2022-10-28T02:02:48.722Z,99.9
2022-10-28T02:04:46.353Z,99.9
2022-10-28T02:06:43.976Z,99.9
2022-10-28T02:08:41.588Z,99.9
2022-10-28T02:10:39.237Z,99.9
2022-10-28T02:12:36.836Z,99.9
2022-10-28T02:14:42.396Z,99.9
2022-10-28T02:16:40.042Z,99.9
2022-10-28T02:18:37.677Z,99.9
2022-10-28T02:19:40.469Z,99.9
2022-10-28T02:21:38.091Z,99.9
2022-10-28T02:23:35.734Z,99.9
2022-10-28T02:27:38.892Z,99.9
2022-10-28T02:29:36.544Z,99.9
2022-10-28T02:33:31.771Z,99.9
2022-10-28T02:35:29.408Z,99.9
2022-10-28T02:37:27.017Z,99.9
2022-10-28T02:39:24.649Z,99.9
2022-10-28T02:41:30.192Z,99.9
2022-10-28T02:43:27.808Z,99.9
2022-10-28T02:45:25.462Z,99.9
2022-10-28T02:47:23.059Z,99.9
2022-10-28T02:49:20.732Z,99.9
2022-10-28T02:51:18.327Z,99.9
2022-10-28T02:53:15.992Z,99.9
2022-10-28T02:59:16.770Z,99.9
2022-10-28T03:01:14.528Z,99.9
2022-10-28T03:05:09.638Z,99.9
2022-10-28T03:07:07.227Z,99.9
2022-10-28T03:14:13.287Z,99.9
2022-10-28T03:16:08.438Z,99.9
2022-10-28T03:18:06.072Z,99.9
2022-10-28T03:20:03.703Z,99.9
2022-10-28T03:22:09.206Z,99.9
2022-10-28T03:26:04.490Z,99.9
2022-10-28T03:28:02.111Z,99.9
2022-10-28T03:29:59.738Z,99.9
2022-10-28T03:31:57.383Z,99.9
2022-10-28T03:33:54.995Z,99.9
2022-10-28T03:36:00.552Z,99.9
2022-10-28T03:37:58.183Z,99.9
2022-10-28T03:39:55.789Z,99.9
2022-10-28T03:41:53.423Z,99.9
2022-10-28T03:45:48.700Z,99.9
2022-10-28T03:47:46.319Z,99.9
2022-10-28T03:49:51.852Z,99.9
2022-10-28T03:51:49.508Z,99.9
2022-10-28T03:53:47.125Z,99.9
2022-10-28T03:55:44.855Z,99.9
2022-10-28T03:57:42.371Z,99.9
2022-10-28T03:59:39.969Z,99.9
2022-10-28T04:01:37.787Z,99.9
2022-10-28T04:03:43.143Z,99.9
2022-10-28T04:05:40.775Z,99.9
2022-10-28T04:07:38.403Z,99.9
2022-10-28T04:08:41.153Z,99.9
2022-10-28T04:10:40.172Z,99.9
2022-10-28T04:12:36.403Z,99.9
2022-10-28T04:14:34.022Z,99.9
2022-10-28T04:16:39.590Z,99.9
2022-10-28T04:18:37.221Z,99.9
2022-10-28T04:20:34.857Z,99.9
2022-10-28T04:22:32.480Z,99.9
2022-10-28T04:24:30.104Z,99.9
2022-10-28T04:26:27.726Z,99.9
2022-10-28T04:28:25.383Z,99.9
2022-10-28T04:30:30.932Z,99.9
2022-10-28T04:32:28.554Z,99.9
2022-10-28T04:34:26.181Z,99.9
2022-10-28T04:36:23.820Z,99.9
2022-10-28T04:38:21.507Z,99.9
2022-10-28T04:40:19.079Z,99.9
2022-10-28T04:42:16.696Z,99.9
2022-10-28T04:44:22.222Z,99.9
2022-10-28T04:46:19.839Z,99.9
2022-10-28T04:48:17.451Z,99.9
2022-10-28T04:52:14.927Z,99.9
2022-10-28T04:54:10.330Z,99.9
2022-10-28T04:56:07.936Z,99.9
2022-10-28T04:58:13.472Z,99.9
2022-10-28T05:00:11.096Z,99.9
2022-10-28T05:02:08.899Z,99.9
2022-10-28T05:04:35.649Z,99.9
2022-10-28T05:06:33.265Z,99.9
2022-10-28T05:08:30.894Z,99.9
2022-10-28T05:10:36.441Z,99.9
2022-10-28T05:12:34.059Z,99.9
2022-10-28T05:14:31.734Z,99.9
2022-10-28T05:16:29.365Z,99.9
2022-10-28T05:18:27.009Z,99.9
2022-10-28T05:20:24.639Z,99.9
2022-10-28T05:22:22.248Z,99.9
2022-10-28T05:24:27.755Z,99.9
2022-10-28T05:26:25.388Z,99.9
2022-10-28T05:28:23.030Z,99.9
2022-10-28T05:30:20.659Z,99.9
2022-10-28T05:32:18.286Z,99.9
2022-10-28T05:34:15.923Z,99.9
2022-10-28T05:40:18.244Z,99.9
2022-10-28T05:42:15.798Z,99.9
2022-10-28T05:46:11.028Z,99.9
2022-10-28T05:48:08.660Z,99.9
2022-10-28T05:52:11.841Z,99.9
2022-10-28T05:54:09.398Z,99.9
2022-10-28T05:56:07.059Z,99.9
2022-10-28T06:01:05.070Z,99.9
2022-10-28T06:03:02.672Z,99.9
2022-10-28T06:05:08.182Z,99.9
2022-10-28T06:07:05.813Z,99.9
2022-10-28T06:09:03.431Z,99.9
2022-10-28T06:10:59.543Z,99.9
2022-10-28T06:12:57.142Z,99.9
2022-10-28T06:14:54.774Z,99.9
2022-10-28T06:16:52.385Z,99.9
2022-10-28T06:18:57.923Z,99.9
2022-10-28T06:20:55.558Z,99.9
2022-10-28T06:22:53.503Z,99.9
2022-10-28T06:24:50.816Z,99.9
2022-10-28T06:26:48.435Z,99.9
2022-10-28T06:28:46.049Z,99.9
2022-10-28T06:30:43.671Z,99.9
2022-10-28T06:32:49.198Z,99.9
2022-10-28T06:34:46.820Z,99.9
2022-10-28T06:36:44.433Z,99.9
2022-10-28T06:38:42.067Z,99.9
2022-10-28T06:40:39.676Z,99.9
2022-10-28T06:42:37.319Z,99.9
2022-10-28T06:44:34.897Z,99.9
2022-10-28T06:46:41.975Z,99.9
2022-10-28T06:48:39.586Z,99.9
2022-10-28T06:50:37.209Z,99.9
2022-10-28T06:51:39.982Z,99.9
2022-10-28T06:53:37.629Z,99.9
2022-10-28T06:55:35.251Z,99.9
2022-10-28T06:57:32.846Z,99.9
2022-10-28T06:59:38.403Z,99.9
2022-10-28T07:01:36.095Z,99.9
2022-10-28T07:03:33.610Z,99.9
2022-10-28T07:05:31.225Z,99.9
2022-10-28T07:07:28.847Z,99.9
2022-10-28T07:09:26.474Z,99.9
2022-10-28T07:11:24.097Z,99.9
2022-10-28T07:13:29.643Z,99.9
2022-10-28T07:15:27.263Z,99.9
2022-10-28T07:21:20.122Z,99.9
2022-10-28T07:23:17.747Z,99.9
2022-10-28T07:31:16.102Z,99.9
2022-10-28T07:33:13.745Z,99.9
2022-10-28T07:37:08.965Z,99.9
2022-10-28T07:39:06.578Z,99.9
2022-10-28T07:41:12.142Z,99.9
2022-10-28T07:43:09.754Z,99.9
2022-10-28T07:45:07.361Z,99.9
2022-10-28T07:46:10.125Z,99.9
2022-10-28T07:48:07.743Z,99.9
2022-10-28T07:50:05.351Z,99.9
2022-10-28T07:52:02.965Z,99.9
2022-10-28T07:54:08.517Z,99.9
2022-10-28T07:56:06.125Z,99.9
2022-10-28T07:58:03.730Z,99.9
2022-10-28T08:00:01.324Z,99.9
2022-10-28T08:01:58.955Z,99.9
2022-10-28T08:03:56.558Z,99.9
2022-10-28T08:05:57.497Z,99.9
2022-10-28T08:07:59.662Z,99.9
2022-10-28T08:09:57.278Z,99.9
2022-10-28T08:13:52.481Z,99.9
2022-10-28T08:15:50.086Z,99.9
2022-10-28T08:19:45.271Z,99.9
2022-10-28T08:21:50.832Z,99.9
2022-10-28T08:23:48.445Z,99.9
2022-10-28T08:25:46.052Z,99.9
2022-10-28T08:27:43.654Z,99.9
2022-10-28T08:29:41.245Z,99.9
2022-10-28T08:33:36.471Z,99.9
2022-10-28T08:35:41.994Z,99.9
2022-10-28T08:37:39.634Z,99.9
2022-10-28T08:39:37.228Z,99.9
2022-10-28T08:41:54.088Z,99.9
2022-10-28T08:43:57.156Z,99.9
2022-10-28T08:49:52.461Z,99.9
2022-10-28T08:53:47.683Z,99.9
2022-10-28T08:55:45.283Z,99.9
2022-10-28T08:57:42.890Z,99.9
2022-10-28T08:59:40.466Z,99.9
2022-10-28T09:01:46.174Z,99.9
2022-10-28T09:03:43.581Z,99.9
2022-10-28T09:05:41.184Z,99.9
2022-10-28T09:07:38.770Z,99.9
2022-10-28T09:09:36.328Z,99.9
2022-10-28T09:13:31.518Z,99.9
2022-10-28T09:15:37.107Z,99.9
2022-10-28T09:17:34.616Z,99.9
2022-10-28T09:19:32.189Z,99.9
2022-10-28T09:21:29.769Z,99.9
2022-10-28T09:23:27.349Z,99.9
2022-10-28T09:29:27.986Z,99.9
2022-10-28T09:31:25.556Z,99.9
2022-10-28T09:34:25.893Z,99.9
2022-10-28T09:36:23.438Z,99.9
2022-10-28T09:38:21.001Z,99.9
2022-10-28T09:40:18.615Z,99.9
2022-10-28T09:42:24.067Z,99.9
2022-10-28T09:44:21.623Z,99.9
2022-10-28T09:46:19.209Z,99.9
2022-10-28T09:48:16.786Z,99.9
2022-10-28T09:52:15.281Z,99.9
2022-10-28T09:54:09.431Z,99.9
2022-10-28T09:58:12.473Z,99.9
2022-10-28T10:00:10.034Z,99.9
2022-10-28T10:02:07.752Z,99.8
2022-10-28T10:06:02.661Z,99.7
2022-10-28T10:08:00.232Z,99.5
2022-10-28T10:10:05.682Z,99.1
2022-10-28T10:12:03.239Z,99
2022-10-28T10:14:00.751Z,98.9
2022-10-28T10:15:58.292Z,98.8
2022-10-28T10:17:55.856Z,98.8
2022-10-28T10:19:53.386Z,98.8
2022-10-28T10:21:50.924Z,98.7
2022-10-28T10:23:56.409Z,98.5
2022-10-28T10:25:54.112Z,98.4
2022-10-28T10:27:51.778Z,98.3
2022-10-28T10:28:54.220Z,98.2
2022-10-28T10:30:51.753Z,98.1
2022-10-28T10:32:49.321Z,98
2022-10-28T10:34:46.850Z,97.8
2022-10-28T10:36:52.343Z,97.5
2022-10-28T10:38:49.878Z,97.3
2022-10-28T10:40:47.410Z,97.1
2022-10-28T10:42:57.364Z,97
2022-10-28T10:44:42.477Z,96.8
2022-10-28T10:46:40.032Z,96.7
2022-10-28T10:48:37.564Z,96.6
2022-10-28T10:50:43.042Z,96.4
2022-10-28T10:52:40.576Z,96.2
2022-10-28T10:54:38.106Z,96.1
2022-10-28T10:56:35.601Z,95.9
2022-10-28T10:58:33.142Z,95.7
2022-10-28T11:00:30.657Z,95.4
2022-10-28T11:02:28.335Z,95.3
2022-10-28T11:04:33.658Z,95
2022-10-28T11:06:31.166Z,95.1
2022-10-28T11:08:28.664Z,95
2022-10-28T11:10:26.195Z,94.8
2022-10-28T11:12:23.713Z,94.5
2022-10-28T11:20:21.695Z,93
2022-10-28T11:23:23.472Z,92.6
2022-10-28T11:27:19.994Z,92.2
2022-10-28T11:29:19.052Z,92
2022-10-28T11:31:24.466Z,91.7
2022-10-28T11:33:30.013Z,91.9
2022-10-28T11:35:19.439Z,92
2022-10-28T11:37:16.921Z,92.2
2022-10-28T11:39:14.416Z,92.4
2022-10-28T11:41:11.932Z,92.6
2022-10-28T11:43:09.389Z,92.8
2022-10-28T11:45:14.843Z,93.1
2022-10-28T11:47:12.337Z,93.2
2022-10-28T11:49:09.823Z,93.2
2022-10-28T11:51:07.312Z,93
2022-10-28T11:53:04.779Z,92.9
2022-10-28T11:55:02.291Z,92.8
2022-10-28T11:56:59.772Z,92.7
2022-10-28T11:59:05.214Z,92.3
2022-10-28T12:03:00.881Z,92.3
2022-10-28T12:04:57.708Z,92.4
2022-10-28T12:06:55.178Z,92.3
2022-10-28T12:08:52.735Z,92.4
2022-10-28T12:10:50.179Z,92.4
2022-10-28T12:12:55.916Z,92.1
2022-10-28T12:14:53.296Z,91.9
2022-10-28T12:16:50.619Z,91.7
2022-10-28T12:21:11.266Z,90.3
2022-10-28T12:23:08.655Z,90.1
2022-10-28T12:25:14.170Z,90
2022-10-28T12:27:15.355Z,89.9
2022-10-28T12:29:09.187Z,90.1
2022-10-28T12:31:06.578Z,90.1
2022-10-28T12:33:04.042Z,90.1
2022-10-28T12:35:01.527Z,90.1
2022-10-28T12:36:58.996Z,90
2022-10-28T12:39:04.432Z,89.6
2022-10-28T12:41:01.910Z,89.2
2022-10-28T12:42:59.386Z,88.8
2022-10-28T12:50:49.354Z,87.2
2022-10-28T12:54:53.640Z,86.9
2022-10-28T12:56:49.749Z,87.2
2022-10-28T12:58:47.226Z,87.5
2022-10-28T13:00:44.794Z,87.8
2022-10-28T13:02:42.192Z,88.2
2022-10-28T13:04:39.674Z,88.6
2022-10-28T13:06:45.129Z,89
2022-10-28T13:08:42.654Z,89.3
2022-10-28T13:10:40.082Z,89.4
2022-10-28T13:11:42.812Z,89.2
2022-10-28T13:13:40.335Z,89
2022-10-28T13:15:37.769Z,88.8
2022-10-28T13:17:35.275Z,88.7
2022-10-28T13:19:40.696Z,88.3
2022-10-28T13:21:38.199Z,88.3
2022-10-28T13:25:33.150Z,88.2
2022-10-28T13:27:30.702Z,88.1
2022-10-28T13:29:28.145Z,88.2
2022-10-28T13:31:25.627Z,88.3
2022-10-28T13:33:31.075Z,88.5
2022-10-28T13:35:28.577Z,88.7
2022-10-28T13:37:26.068Z,88.9
2022-10-28T13:39:23.542Z,89
2022-10-28T13:41:21.042Z,89
2022-10-28T13:43:18.541Z,89.1
2022-10-28T13:45:16.055Z,89.3
2022-10-28T13:47:21.492Z,89.6
2022-10-28T13:49:18.993Z,89.8
2022-10-28T13:51:16.501Z,90
2022-10-28T13:53:13.987Z,90.1
2022-10-28T13:55:11.493Z,90.1
2022-10-28T13:57:09.099Z,90.1
2022-10-28T14:01:12.053Z,90.4
2022-10-28T14:03:09.628Z,90.5
2022-10-28T14:05:06.968Z,90.5
2022-10-28T14:06:09.841Z,90.6
2022-10-28T14:08:07.214Z,90.6
2022-10-28T14:12:02.256Z,90.5
2022-10-28T14:14:07.747Z,90.6
2022-10-28T14:16:06.206Z,90.5
2022-10-28T14:18:10.178Z,90.6
2022-10-28T14:20:00.291Z,90.6
2022-10-28T14:22:01.723Z,90.7
2022-10-28T14:23:55.290Z,90.8
2022-10-28T14:25:52.838Z,90.9
2022-10-28T14:33:50.857Z,91.3
2022-10-28T14:35:48.384Z,91.4
2022-10-28T14:39:43.413Z,91.6
2022-10-28T14:41:48.897Z,91.8
2022-10-28T14:43:46.404Z,91.9
2022-10-28T14:45:43.928Z,92.1
2022-10-28T14:47:41.469Z,92.2
2022-10-28T14:49:38.980Z,92.2
2022-10-28T14:51:36.504Z,92.3
2022-10-28T14:53:34.039Z,92.4
2022-10-28T14:55:39.521Z,92.5
2022-10-28T14:57:37.068Z,92.6
2022-10-28T15:00:37.347Z,92.8
2022-10-28T15:02:35.031Z,92.9
2022-10-28T15:04:32.406Z,93
2022-10-28T15:06:29.926Z,93.1
2022-10-28T15:08:35.408Z,93.4
2022-10-28T15:10:32.965Z,93.5
2022-10-28T15:12:30.485Z,93.6
2022-10-28T15:14:28.016Z,93.7
2022-10-28T15:16:25.553Z,93.9
2022-10-28T15:18:23.096Z,94.1
2022-10-28T15:20:20.629Z,94.2
2022-10-28T15:22:26.126Z,94.5
2022-10-28T15:24:23.684Z,94.7
2022-10-28T15:26:21.217Z,94.8
2022-10-28T15:28:18.757Z,94.9
2022-10-28T15:30:16.285Z,95.1
2022-10-28T15:32:13.861Z,95.2
2022-10-28T15:36:18.233Z,95.6
2022-10-28T15:40:12.344Z,95.8
2022-10-28T15:42:09.555Z,95.9
2022-10-28T15:44:07.092Z,96
2022-10-28T15:46:04.654Z,96.2
2022-10-28T15:48:02.188Z,96.3
2022-10-28T15:50:07.730Z,96.7
2022-10-28T15:52:05.259Z,96.8
2022-10-28T15:54:02.820Z,97
2022-10-28T15:56:29.652Z,97.2
2022-10-28T15:58:27.225Z,97.3
2022-10-28T16:00:24.757Z,97.4
2022-10-28T16:02:30.355Z,97.7
2022-10-28T16:04:27.812Z,97.9
2022-10-28T16:06:25.350Z,98.1
2022-10-28T16:08:22.904Z,98.3
2022-10-28T16:10:20.462Z,98.5
2022-10-28T16:12:18.008Z,98.6
2022-10-28T16:14:15.574Z,98.7
2022-10-28T16:16:21.099Z,99
2022-10-28T16:18:18.646Z,99.1
2022-10-28T16:20:18.659Z,99.2
2022-10-28T16:22:13.787Z,99.4
2022-10-28T16:24:11.335Z,99.5
2022-10-28T16:26:08.893Z,99.6
2022-10-28T16:30:12.064Z,99.8
2022-10-28T16:36:04.631Z,99.9
2022-10-28T16:38:02.196Z,99.9
2022-10-28T16:39:59.830Z,99.9
2022-10-28T16:41:57.305Z,99.9
2022-10-28T16:44:02.845Z,99.9
2022-10-28T16:46:00.374Z,99.9
2022-10-28T16:47:58.076Z,99.9
2022-10-28T16:49:00.700Z,99.9
2022-10-28T16:50:58.271Z,99.9
2022-10-28T16:54:53.392Z,99.9
2022-10-28T16:56:58.897Z,99.9
2022-10-28T16:58:56.488Z,99.9
2022-10-28T17:00:54.042Z,99.9
2022-10-28T17:02:51.624Z,99.9
2022-10-28T17:04:49.183Z,99.9
2022-10-28T17:06:46.801Z,99.9
2022-10-28T17:10:51.389Z,99.9
2022-10-28T17:12:48.961Z,99.9
2022-10-28T17:16:44.095Z,99.9
2022-10-28T17:18:41.695Z,99.9
2022-10-28T17:20:39.278Z,99.9
2022-10-28T17:22:36.844Z,99.9
2022-10-28T17:24:42.346Z,99.9
2022-10-28T17:26:39.917Z,99.9
2022-10-28T17:28:37.464Z,99.9
2022-10-28T17:30:35.156Z,99.9
2022-10-28T17:32:32.646Z,99.9
2022-10-28T17:34:30.233Z,99.9
2022-10-28T17:36:27.792Z,99.9
2022-10-28T17:38:33.302Z,99.9
2022-10-28T17:40:30.863Z,99.9
2022-10-28T17:42:28.427Z,99.9
2022-10-28T17:45:28.761Z,99.9
2022-10-28T17:51:29.404Z,99.9
2022-10-28T17:53:26.981Z,99.9
2022-10-28T17:55:24.600Z,99.9
2022-10-28T17:57:22.124Z,99.9
2022-10-28T17:59:19.691Z,99.9
2022-10-28T18:01:17.353Z,99.9
2022-10-28T18:03:14.843Z,99.9
2022-10-28T18:07:17.959Z,99.9
2022-10-28T18:09:15.532Z,99.9
2022-10-28T18:11:13.110Z,99.9
2022-10-28T18:13:10.690Z,99.9
2022-10-28T18:15:08.271Z,99.9
2022-10-28T18:17:05.863Z,99.9
2022-10-28T18:19:11.362Z,99.9
2022-10-28T18:21:08.937Z,99.9
2022-10-28T18:25:04.112Z,99.9
2022-10-28T18:27:01.698Z,99.9
2022-10-28T18:28:59.277Z,99.9
2022-10-28T18:30:56.843Z,99.9
2022-10-28T18:33:02.358Z,99.9
2022-10-28T18:34:59.986Z,99.9
2022-10-28T18:36:57.517Z,99.9
2022-10-28T18:38:00.278Z,99.9
2022-10-28T18:39:57.854Z,99.9
2022-10-28T18:41:55.446Z,99.9
2022-10-28T18:43:53.064Z,99.9
2022-10-28T18:45:58.579Z,99.9
2022-10-28T18:47:56.502Z,99.9
2022-10-28T18:49:53.720Z,99.9
2022-10-28T18:53:48.884Z,99.9
2022-10-28T18:55:46.477Z,99.9
2022-10-28T18:57:44.048Z,99.9
2022-10-28T19:00:16.890Z,99.9
2022-10-28T19:01:47.367Z,99.9
2022-10-28T19:03:44.754Z,99.9
2022-10-28T19:05:42.479Z,99.9
2022-10-28T19:07:39.918Z,99.9
2022-10-28T19:09:37.503Z,99.9
2022-10-28T19:15:38.238Z,99.9
2022-10-28T19:17:35.817Z,99.9
2022-10-28T19:19:38.368Z,99.9
2022-10-28T19:21:30.988Z,99.9
2022-10-28T19:23:28.551Z,99.9
2022-10-28T19:25:26.146Z,99.9
2022-10-28T19:27:31.692Z,99.9
2022-10-28T19:29:29.363Z,99.9
2022-10-28T19:31:26.900Z,99.9
2022-10-28T19:33:53.758Z,99.9
2022-10-28T19:35:51.498Z,99.9
2022-10-28T19:37:48.934Z,99.9
2022-10-28T19:39:56.578Z,99.9
2022-10-28T19:41:52.044Z,99.9
2022-10-28T19:43:51.422Z,99.9
2022-10-28T19:45:47.221Z,99.9
2022-10-28T19:51:40.006Z,99.9
2022-10-28T19:55:43.111Z,99.9
2022-10-28T19:57:40.699Z,99.9
2022-10-28T19:59:38.308Z,99.9
2022-10-28T20:01:36.040Z,99.9
2022-10-28T20:03:34.770Z,99.9
2022-10-28T20:05:31.117Z,99.9
2022-10-28T20:07:36.649Z,99.9
2022-10-28T20:13:29.441Z,99.9
2022-10-28T20:15:27.044Z,99.9
2022-10-28T20:19:22.245Z,99.9
2022-10-28T20:23:25.382Z,99.9
2022-10-28T20:25:22.960Z,99.9
2022-10-28T20:28:23.329Z,99.9
2022-10-28T20:32:18.533Z,99.9
2022-10-28T20:34:24.063Z,99.9
2022-10-28T20:36:21.665Z,99.9
2022-10-28T20:38:19.266Z,99.9
2022-10-28T20:40:16.887Z,99.9
2022-10-28T20:44:12.085Z,99.9
2022-10-28T20:48:15.202Z,99.9
2022-10-28T20:50:12.800Z,99.9
2022-10-28T20:52:10.488Z,99.9
2022-10-28T20:54:08.010Z,99.9
2022-10-28T20:56:05.635Z,99.9
2022-10-28T20:58:03.230Z,99.9
2022-10-28T21:02:06.416Z,99.9
2022-10-28T21:04:03.981Z,99.9
2022-10-28T21:06:01.662Z,99.9
2022-10-28T21:07:59.119Z,99.9
2022-10-28T21:09:56.701Z,99.9
2022-10-28T21:11:54.316Z,99.9
2022-10-28T21:13:51.918Z,99.9
2022-10-28T21:15:58.006Z,99.9
2022-10-28T21:17:55.407Z,99.9
2022-10-28T21:19:52.741Z,99.9
2022-10-28T21:22:53.424Z,99.9
2022-10-28T21:24:50.671Z,99.9
2022-10-28T21:28:53.817Z,99.9
2022-10-28T21:30:51.445Z,99.9
2022-10-28T21:32:49.078Z,99.9
2022-10-28T21:34:46.694Z,99.9
2022-10-28T21:36:44.292Z,99.9
2022-10-28T21:38:41.893Z,99.9
2022-10-28T21:40:39.505Z,99.9
2022-10-28T21:42:45.061Z,99.9
2022-10-28T21:44:42.657Z,99.9
2022-10-28T21:50:35.485Z,99.9
2022-10-28T21:52:33.085Z,99.9
2022-10-28T21:54:30.703Z,99.9
2022-10-28T21:56:36.381Z,99.9
2022-10-28T21:58:33.846Z,99.9
2022-10-28T22:00:31.477Z,99.9
2022-10-28T22:02:29.282Z,99.9
2022-10-28T22:04:26.685Z,99.9
2022-10-28T22:06:24.289Z,99.9
2022-10-28T22:08:21.913Z,99.9
2022-10-28T22:10:27.483Z,99.9
2022-10-28T22:12:25.107Z,99.9
2022-10-28T22:14:22.737Z,99.9
2022-10-28T22:17:23.128Z,99.9
2022-10-28T22:19:20.738Z,99.9
2022-10-28T22:21:18.363Z,99.9
2022-10-28T22:23:23.886Z,99.9
2022-10-28T22:25:21.505Z,99.9
2022-10-28T22:27:19.125Z,99.9
2022-10-28T22:29:16.762Z,99.9
2022-10-28T22:31:14.351Z,99.9
2022-10-28T22:33:11.968Z,99.9
2022-10-28T22:35:09.583Z,99.9
2022-10-28T22:37:15.114Z,99.9
2022-10-28T22:41:10.360Z,99.9
2022-10-28T22:43:08.004Z,99.9
2022-10-28T22:45:05.609Z,99.9
2022-10-28T22:47:03.241Z,99.9
2022-10-28T22:49:00.824Z,99.9
2022-10-28T22:51:07.950Z,99.9
2022-10-28T22:53:05.518Z,99.9
2022-10-28T22:55:03.160Z,99.9
2022-10-28T22:57:00.752Z,99.9
2022-10-28T22:58:58.389Z,99.9
2022-10-28T23:00:55.984Z,99.9
2022-10-28T23:02:54.076Z,99.9
2022-10-28T23:04:59.193Z,99.9
2022-10-28T23:06:56.800Z,99.9
2022-10-28T23:08:54.421Z,99.9
2022-10-28T23:11:17.417Z,99.9
2022-10-28T23:13:15.018Z,99.9
2022-10-28T23:15:12.660Z,99.9
2022-10-28T23:17:18.179Z,99.9
2022-10-28T23:21:13.435Z,99.9
2022-10-28T23:23:11.062Z,99.9
2022-10-28T23:25:08.673Z,99.9
2022-10-28T23:31:09.445Z,99.9
2022-10-28T23:33:07.032Z,99.9
2022-10-28T23:35:04.671Z,99.9
2022-10-28T23:37:02.291Z,99.9
2022-10-28T23:38:59.906Z,99.9
2022-10-28T23:40:57.519Z,99.9
2022-10-28T23:42:55.343Z,99.9
2022-10-28T23:45:00.696Z,99.9
2022-10-28T23:46:58.323Z,99.9
2022-10-28T23:50:53.543Z,99.9
2022-10-28T23:54:48.869Z,99.9
2022-10-28T23:56:46.426Z,99.9
2022-10-28T23:58:51.958Z,99.9
